createdAt,value
2018-07-30T00:03:00.982Z,92
2018-07-30T00:04:01.027Z,92
2018-07-30T00:05:01.179Z,92
2018-07-30T00:06:01.057Z,92
2018-07-30T00:07:00.974Z,91
2018-07-30T00:08:01.024Z,91
2018-07-30T00:09:00.997Z,91
2018-07-30T00:11:01.062Z,91
2018-07-30T00:12:11.214Z,91
2018-07-30T00:13:01.986Z,91
2018-07-30T00:14:01.080Z,91
2018-07-30T00:15:01.162Z,91
2018-07-30T00:16:01.027Z,91
2018-07-30T00:17:01.125Z,92
2018-07-30T00:18:01.056Z,92
2018-07-30T00:20:01.043Z,92
2018-07-30T00:21:01.088Z,92
2018-07-30T00:23:42.274Z,92
2018-07-30T00:24:57.571Z,92
2018-07-30T00:25:57.411Z,92
2018-07-30T00:26:57.440Z,92
2018-07-30T00:28:57.545Z,92
2018-07-30T00:29:57.511Z,92
2018-07-30T00:30:57.421Z,92
2018-07-30T00:31:57.510Z,92
2018-07-30T00:34:10.123Z,92
2018-07-30T00:35:10.122Z,92
2018-07-30T00:36:10.078Z,92
2018-07-30T00:39:10.086Z,92
2018-07-30T00:40:10.185Z,92
2018-07-30T00:41:10.195Z,92
2018-07-30T00:43:10.172Z,92
2018-07-30T00:44:10.824Z,92
2018-07-30T00:45:10.200Z,91
2018-07-30T00:46:10.179Z,91
2018-07-30T00:47:10.219Z,90
2018-07-30T00:48:10.344Z,90
2018-07-30T00:49:10.337Z,90
2018-07-30T00:50:10.105Z,90
2018-07-30T00:51:10.126Z,90
2018-07-30T00:53:10.204Z,90
2018-07-30T00:55:10.217Z,91
2018-07-30T00:57:10.300Z,91
2018-07-30T00:59:10.185Z,91
2018-07-30T01:00:10.164Z,91
2018-07-30T01:01:10.226Z,91
2018-07-30T01:03:10.173Z,92
2018-07-30T01:04:10.112Z,92
2018-07-30T01:05:10.232Z,92
2018-07-30T01:06:10.149Z,92
2018-07-30T01:08:10.162Z,92
2018-07-30T01:11:10.168Z,92
2018-07-30T01:12:10.166Z,93
2018-07-30T01:14:10.181Z,93
2018-07-30T01:15:10.179Z,93
2018-07-30T01:16:10.271Z,93
2018-07-30T01:17:10.213Z,93
2018-07-30T01:18:10.711Z,93
2018-07-30T01:19:10.217Z,93
2018-07-30T01:21:10.218Z,93
2018-07-30T01:22:10.246Z,93
2018-07-30T01:24:10.209Z,93
2018-07-30T01:25:10.186Z,93
2018-07-30T01:26:10.236Z,93
2018-07-30T01:28:10.210Z,93
2018-07-30T01:41:14.605Z,94
2018-07-30T01:44:14.553Z,94
2018-07-30T01:45:14.549Z,94
2018-07-30T01:48:14.617Z,94
2018-07-30T01:49:14.569Z,94
2018-07-30T01:50:16.800Z,94
2018-07-30T01:51:14.703Z,94
2018-07-30T01:52:14.597Z,94
2018-07-30T01:53:14.581Z,94
2018-07-30T01:54:14.617Z,94
2018-07-30T01:56:14.637Z,94
2018-07-30T01:57:14.656Z,94
2018-07-30T01:58:14.636Z,94
2018-07-30T01:59:14.626Z,94
2018-07-30T02:00:14.590Z,94
2018-07-30T02:01:14.634Z,94
2018-07-30T02:02:14.644Z,94
2018-07-30T02:03:14.596Z,94
2018-07-30T02:04:14.647Z,94
2018-07-30T02:05:14.606Z,94
2018-07-30T02:06:14.656Z,94
2018-07-30T02:07:14.707Z,94
2018-07-30T02:08:14.665Z,94
2018-07-30T02:09:14.701Z,94
2018-07-30T02:10:15.326Z,94
2018-07-30T02:11:14.693Z,94
2018-07-30T02:12:14.637Z,94
2018-07-30T02:13:14.602Z,94
2018-07-30T02:14:14.646Z,94
2018-07-30T02:15:14.714Z,94
2018-07-30T02:18:14.692Z,94
2018-07-30T02:19:14.662Z,94
2018-07-30T02:20:14.654Z,94
2018-07-30T02:21:14.639Z,94
2018-07-30T02:22:14.689Z,94
2018-07-30T02:24:14.762Z,94
2018-07-30T02:25:14.780Z,94
2018-07-30T02:26:14.665Z,94
2018-07-30T02:27:14.719Z,94
2018-07-30T02:28:14.656Z,94
2018-07-30T02:29:14.705Z,94
2018-07-30T02:30:14.674Z,94
2018-07-30T02:31:14.663Z,94
2018-07-30T02:32:14.722Z,94
2018-07-30T02:33:14.740Z,94
2018-07-30T02:34:14.763Z,95
2018-07-30T02:35:14.809Z,95
2018-07-30T02:36:15.277Z,95
2018-07-30T02:37:14.612Z,95
2018-07-30T02:39:14.778Z,95
2018-07-30T02:40:14.797Z,95
2018-07-30T02:41:14.747Z,95
2018-07-30T02:42:14.694Z,95
2018-07-30T02:43:14.694Z,95
2018-07-30T02:44:14.819Z,95
2018-07-30T02:45:14.831Z,95
2018-07-30T02:46:14.744Z,95
2018-07-30T02:47:31.472Z,95
2018-07-30T02:49:14.910Z,95
2018-07-30T02:50:21.566Z,95
2018-07-30T02:51:14.771Z,95
2018-07-30T02:52:14.768Z,94
2018-07-30T02:53:14.798Z,94
2018-07-30T02:54:14.761Z,94
2018-07-30T02:55:14.806Z,94
2018-07-30T02:56:14.786Z,94
2018-07-30T02:59:48.272Z,95
2018-07-30T03:01:48.262Z,95
2018-07-30T03:03:48.267Z,95
2018-07-30T03:04:48.234Z,95
2018-07-30T03:05:48.259Z,95
2018-07-30T03:06:48.238Z,95
2018-07-30T03:07:48.257Z,95
2018-07-30T03:08:48.231Z,95
2018-07-30T03:09:48.224Z,95
2018-07-30T03:10:48.339Z,95
2018-07-30T03:11:48.314Z,95
2018-07-30T03:12:48.384Z,95
2018-07-30T03:13:48.218Z,95
2018-07-30T03:14:48.277Z,95
2018-07-30T03:15:48.330Z,95
2018-07-30T03:16:48.379Z,95
2018-07-30T03:17:48.344Z,95
2018-07-30T03:18:48.261Z,95
2018-07-30T03:19:48.299Z,95
2018-07-30T03:20:48.262Z,95
2018-07-30T03:21:48.256Z,95
2018-07-30T03:22:48.277Z,95
2018-07-30T03:23:48.245Z,95
2018-07-30T03:24:48.303Z,95
2018-07-30T03:25:48.243Z,95
2018-07-30T03:26:48.305Z,95
2018-07-30T03:27:48.284Z,95
2018-07-30T03:28:48.344Z,95
2018-07-30T03:29:48.288Z,95
2018-07-30T03:30:48.320Z,95
2018-07-30T03:32:48.327Z,95
2018-07-30T03:33:48.273Z,95
2018-07-30T03:34:48.307Z,95
2018-07-30T03:35:48.407Z,95
2018-07-30T03:37:48.278Z,95
2018-07-30T03:38:48.279Z,95
2018-07-30T03:39:48.309Z,95
2018-07-30T03:40:48.315Z,95
2018-07-30T03:41:48.365Z,95
2018-07-30T03:42:48.348Z,95
2018-07-30T03:45:29.271Z,95
2018-07-30T03:45:43.120Z,95
2018-07-30T03:46:44.176Z,95
2018-07-30T03:47:44.213Z,95
2018-07-30T03:48:44.261Z,95
2018-07-30T03:49:44.191Z,95
2018-07-30T03:50:44.226Z,95
2018-07-30T03:51:44.189Z,95
2018-07-30T03:52:44.163Z,95
2018-07-30T03:53:44.198Z,95
2018-07-30T03:55:56.663Z,96
2018-07-30T03:56:56.647Z,96
2018-07-30T03:57:56.689Z,95
2018-07-30T03:58:56.585Z,95
2018-07-30T03:59:56.680Z,95
2018-07-30T04:00:56.607Z,95
2018-07-30T04:01:56.662Z,95
2018-07-30T04:02:56.711Z,96
2018-07-30T04:03:56.674Z,96
2018-07-30T04:04:56.665Z,96
2018-07-30T04:05:56.667Z,96
2018-07-30T04:06:56.679Z,96
2018-07-30T04:07:56.760Z,96
2018-07-30T04:08:56.682Z,96
2018-07-30T04:09:56.739Z,96
2018-07-30T04:10:56.634Z,96
2018-07-30T04:11:56.737Z,96
2018-07-30T04:12:56.672Z,96
2018-07-30T04:13:56.674Z,96
2018-07-30T04:15:57.701Z,96
2018-07-30T04:16:56.829Z,96
2018-07-30T04:17:56.755Z,96
2018-07-30T04:18:56.747Z,96
2018-07-30T04:19:56.676Z,96
2018-07-30T04:20:56.623Z,96
2018-07-30T04:21:56.748Z,96
2018-07-30T04:22:56.712Z,96
2018-07-30T04:23:56.757Z,96
2018-07-30T04:24:56.753Z,96
2018-07-30T04:25:57.401Z,96
2018-07-30T04:27:56.702Z,96
2018-07-30T04:28:56.717Z,96
2018-07-30T04:29:56.711Z,96
2018-07-30T04:30:56.775Z,96
2018-07-30T04:31:59.406Z,96
2018-07-30T04:32:56.745Z,96
2018-07-30T04:33:56.710Z,96
2018-07-30T04:34:56.738Z,96
2018-07-30T04:36:25.913Z,96
2018-07-30T04:36:56.771Z,96
2018-07-30T04:38:58.797Z,96
2018-07-30T04:39:58.030Z,96
2018-07-30T04:40:56.915Z,96
2018-07-30T04:41:56.799Z,96
2018-07-30T04:43:10.577Z,96
2018-07-30T04:43:57.610Z,96
2018-07-30T04:45:00.506Z,96
2018-07-30T04:46:08.017Z,96
2018-07-30T04:48:08.155Z,96
2018-07-30T04:49:03.577Z,96
2018-07-30T04:50:56.936Z,96
2018-07-30T04:51:57.795Z,96
2018-07-30T04:52:57.000Z,96
2018-07-30T04:53:57.203Z,96
2018-07-30T04:55:57.557Z,96
2018-07-30T04:56:57.053Z,96
2018-07-30T04:57:57.096Z,96
2018-07-30T04:59:57.247Z,96
2018-07-30T05:00:57.247Z,96
2018-07-30T05:01:57.295Z,96
2018-07-30T05:02:57.054Z,96
2018-07-30T05:04:57.558Z,96
2018-07-30T05:06:56.907Z,96
2018-07-30T05:07:56.940Z,96
2018-07-30T05:09:56.926Z,96
2018-07-30T05:10:56.951Z,96
2018-07-30T05:11:57.035Z,96
2018-07-30T05:12:56.931Z,96
2018-07-30T05:13:57.137Z,96
2018-07-30T05:14:57.745Z,96
2018-07-30T05:15:56.951Z,96
2018-07-30T05:17:56.933Z,95
2018-07-30T05:18:57.124Z,95
2018-07-30T05:19:56.905Z,95
2018-07-30T05:20:57.145Z,95
2018-07-30T05:21:56.884Z,95
2018-07-30T05:22:57.027Z,95
2018-07-30T05:23:56.979Z,94
2018-07-30T05:24:56.929Z,94
2018-07-30T05:25:56.957Z,94
2018-07-30T05:26:56.851Z,95
2018-07-30T05:27:56.986Z,95
2018-07-30T05:28:57.027Z,93
2018-07-30T05:29:57.056Z,93
2018-07-30T05:31:57.067Z,92
2018-07-30T05:33:56.923Z,92
2018-07-30T05:35:56.847Z,92
2018-07-30T05:36:56.895Z,89
2018-07-30T05:37:56.912Z,89
2018-07-30T05:38:56.921Z,89
2018-07-30T05:39:56.868Z,88
2018-07-30T05:40:56.873Z,88
2018-07-30T05:43:57.036Z,88
2018-07-30T05:44:56.939Z,86
2018-07-30T05:45:56.974Z,86
2018-07-30T05:46:58.239Z,84
2018-07-30T05:47:56.919Z,84
2018-07-30T05:48:56.987Z,84
2018-07-30T05:49:57.736Z,83
2018-07-30T05:50:56.919Z,83
2018-07-30T05:52:56.958Z,83
2018-07-30T05:53:57.003Z,83
2018-07-30T05:54:56.974Z,83
2018-07-30T05:55:56.972Z,83
2018-07-30T05:57:56.969Z,79
2018-07-30T05:58:57.673Z,79
2018-07-30T05:59:57.093Z,78
2018-07-30T06:00:57.462Z,78
2018-07-30T06:01:56.925Z,77
2018-07-30T06:02:57.002Z,77
2018-07-30T06:03:57.113Z,77
2018-07-30T06:04:57.032Z,75
2018-07-30T06:05:56.972Z,75
2018-07-30T06:06:56.963Z,75
2018-07-30T06:07:56.960Z,73
2018-07-30T06:08:56.991Z,73
2018-07-30T06:09:57.041Z,73
2018-07-30T06:10:57.149Z,73
2018-07-30T06:11:57.011Z,73
2018-07-30T06:12:56.974Z,71
2018-07-30T06:13:56.984Z,71
2018-07-30T06:14:57.017Z,70
2018-07-30T06:15:56.994Z,70
2018-07-30T06:16:56.983Z,70
2018-07-30T06:17:56.999Z,70
2018-07-30T06:24:30.845Z,68
2018-07-30T06:25:30.840Z,68
2018-07-30T06:27:30.936Z,68
2018-07-30T06:28:31.453Z,68
2018-07-30T06:29:31.441Z,68
2018-07-30T06:30:30.792Z,67
2018-07-30T06:33:40.104Z,67
2018-07-30T06:34:41.219Z,66
2018-07-30T06:35:41.222Z,66
2018-07-30T06:36:41.260Z,66
2018-07-30T06:37:41.186Z,65
2018-07-30T06:39:41.138Z,65
2018-07-30T06:40:42.692Z,66
2018-07-30T06:41:41.163Z,66
2018-07-30T06:42:41.138Z,65
2018-07-30T06:45:53.642Z,64
2018-07-30T06:46:53.686Z,64
2018-07-30T06:47:53.726Z,66
2018-07-30T06:48:53.633Z,66
2018-07-30T06:49:54.334Z,66
2018-07-30T06:50:53.641Z,65
2018-07-30T06:51:53.644Z,65
2018-07-30T06:52:54.306Z,64
2018-07-30T06:53:53.628Z,64
2018-07-30T06:54:53.658Z,64
2018-07-30T06:55:53.584Z,65
2018-07-30T06:56:53.697Z,65
2018-07-30T06:57:53.671Z,65
2018-07-30T06:58:53.646Z,65
2018-07-30T06:59:53.698Z,65
2018-07-30T07:00:53.732Z,66
2018-07-30T07:01:53.768Z,66
2018-07-30T07:02:54.321Z,66
2018-07-30T07:03:53.664Z,65
2018-07-30T07:04:54.360Z,65
2018-07-30T07:05:53.724Z,65
2018-07-30T07:06:53.737Z,65
2018-07-30T07:07:53.730Z,65
2018-07-30T07:08:53.853Z,64
2018-07-30T07:09:53.707Z,64
2018-07-30T07:10:53.816Z,63
2018-07-30T07:11:53.803Z,63
2018-07-30T07:13:22.159Z,63
2018-07-30T07:13:53.708Z,62
2018-07-30T07:14:53.834Z,62
2018-07-30T07:16:53.785Z,62
2018-07-30T07:17:53.723Z,62
2018-07-30T07:18:53.763Z,59
2018-07-30T07:19:53.705Z,59
2018-07-30T07:20:54.505Z,59
2018-07-30T07:21:53.833Z,59
2018-07-30T07:22:53.728Z,59
2018-07-30T07:23:54.580Z,60
2018-07-30T07:24:53.737Z,60
2018-07-30T07:25:54.440Z,60
2018-07-30T07:26:53.853Z,60
2018-07-30T07:27:53.799Z,60
2018-07-30T07:28:53.740Z,62
2018-07-30T07:30:53.719Z,61
2018-07-30T07:31:53.740Z,61
2018-07-30T07:32:53.793Z,61
2018-07-30T07:33:54.796Z,61
2018-07-30T07:34:53.907Z,61
2018-07-30T07:35:53.883Z,61
2018-07-30T07:37:53.742Z,60
2018-07-30T07:38:54.311Z,59
2018-07-30T07:39:53.871Z,59
2018-07-30T07:40:53.876Z,59
2018-07-30T07:41:53.875Z,59
2018-07-30T07:42:54.744Z,59
2018-07-30T07:43:53.830Z,56
2018-07-30T07:45:53.802Z,56
2018-07-30T07:46:53.754Z,56
2018-07-30T07:47:53.832Z,56
2018-07-30T07:48:53.855Z,57
2018-07-30T07:49:53.829Z,57
2018-07-30T07:50:54.009Z,57
2018-07-30T07:51:53.807Z,57
2018-07-30T07:52:53.778Z,57
2018-07-30T07:53:53.794Z,57
2018-07-30T07:54:53.792Z,57
2018-07-30T07:55:53.829Z,57
2018-07-30T07:56:53.881Z,57
2018-07-30T07:57:53.776Z,57
2018-07-30T07:59:53.863Z,55
2018-07-30T08:00:53.877Z,55
2018-07-30T08:01:53.848Z,56
2018-07-30T08:03:53.845Z,56
2018-07-30T08:04:53.872Z,56
2018-07-30T08:05:54.534Z,56
2018-07-30T08:06:55.105Z,54
2018-07-30T08:07:53.869Z,54
2018-07-30T08:08:53.976Z,54
2018-07-30T08:09:54.260Z,53
2018-07-30T08:10:54.650Z,53
2018-07-30T08:11:54.444Z,52
2018-07-30T08:12:53.868Z,52
2018-07-30T08:13:54.853Z,52
2018-07-30T08:14:53.922Z,52
2018-07-30T08:15:54.598Z,52
2018-07-30T08:16:53.943Z,53
2018-07-30T08:17:53.843Z,53
2018-07-30T08:18:53.845Z,53
2018-07-30T08:19:54.991Z,52
2018-07-30T08:20:53.874Z,52
2018-07-30T08:21:54.005Z,50
2018-07-30T08:23:53.922Z,50
2018-07-30T08:24:53.925Z,49
2018-07-30T08:25:53.909Z,49
2018-07-30T08:26:53.922Z,53
2018-07-30T08:27:53.928Z,53
2018-07-30T08:28:53.845Z,53
2018-07-30T08:29:53.862Z,52
2018-07-30T08:30:53.975Z,52
2018-07-30T08:31:53.949Z,54
2018-07-30T08:32:53.924Z,54
2018-07-30T08:33:53.868Z,54
2018-07-30T08:34:53.805Z,52
2018-07-30T08:35:53.914Z,52
2018-07-30T08:36:53.921Z,52
2018-07-30T08:38:53.894Z,52
2018-07-30T08:39:53.889Z,49
2018-07-30T08:40:53.876Z,49
2018-07-30T08:41:53.907Z,49
2018-07-30T08:42:53.929Z,48
2018-07-30T08:43:53.918Z,48
2018-07-30T08:44:53.850Z,51
2018-07-30T08:45:53.917Z,51
2018-07-30T08:46:54.010Z,51
2018-07-30T08:48:22.935Z,50
2018-07-30T08:48:53.945Z,50
2018-07-30T08:49:53.946Z,50
2018-07-30T08:50:53.856Z,50
2018-07-30T08:51:53.975Z,50
2018-07-30T08:52:53.939Z,49
2018-07-30T08:53:54.009Z,49
2018-07-30T08:54:53.999Z,50
2018-07-30T08:55:53.983Z,50
2018-07-30T08:56:54.034Z,50
2018-07-30T08:57:53.893Z,49
2018-07-30T08:58:53.919Z,49
2018-07-30T08:59:53.891Z,49
2018-07-30T09:00:53.933Z,49
2018-07-30T09:01:53.948Z,49
2018-07-30T09:02:53.951Z,49
2018-07-30T09:03:54.004Z,49
2018-07-30T09:04:54.048Z,49
2018-07-30T09:05:54.056Z,48
2018-07-30T09:06:54.018Z,48
2018-07-30T09:07:54.569Z,48
2018-07-30T09:09:54.136Z,48
2018-07-30T09:11:54.267Z,47
2018-07-30T09:12:54.286Z,48
2018-07-30T09:13:54.071Z,48
2018-07-30T09:14:54.042Z,48
2018-07-30T09:15:54.099Z,47
2018-07-30T09:16:54.225Z,47
2018-07-30T09:17:54.022Z,47
2018-07-30T09:18:54.139Z,47
2018-07-30T09:19:54.749Z,47
2018-07-30T09:20:54.298Z,49
2018-07-30T09:21:54.136Z,49
2018-07-30T09:22:54.085Z,51
2018-07-30T09:23:54.266Z,51
2018-07-30T09:24:54.881Z,51
2018-07-30T09:26:54.457Z,48
2018-07-30T09:27:54.174Z,51
2018-07-30T09:29:54.021Z,51
2018-07-30T09:30:54.364Z,49
2018-07-30T09:31:54.104Z,49
2018-07-30T09:32:54.402Z,49
2018-07-30T09:33:54.154Z,49
2018-07-30T09:34:54.774Z,49
2018-07-30T09:36:54.631Z,47
2018-07-30T09:37:54.428Z,47
2018-07-30T09:38:54.730Z,47
2018-07-30T09:39:54.505Z,47
2018-07-30T09:40:54.117Z,47
2018-07-30T09:41:55.002Z,47
2018-07-30T09:42:54.073Z,47
2018-07-30T09:43:54.048Z,48
2018-07-30T09:44:54.015Z,48
2018-07-30T09:45:53.992Z,46
2018-07-30T09:46:53.946Z,46
2018-07-30T09:47:53.977Z,46
2018-07-30T09:48:54.040Z,47
2018-07-30T09:49:54.003Z,47
2018-07-30T09:50:53.985Z,47
2018-07-30T09:51:54.017Z,47
2018-07-30T09:53:04.109Z,47
2018-07-30T09:53:54.021Z,49
2018-07-30T09:54:53.941Z,49
2018-07-30T09:55:54.615Z,46
2018-07-30T09:56:54.131Z,46
2018-07-30T09:57:53.975Z,46
2018-07-30T09:58:54.304Z,46
2018-07-30T09:59:54.012Z,46
2018-07-30T10:00:53.991Z,46
2018-07-30T10:01:54.004Z,46
2018-07-30T10:03:38.048Z,46
2018-07-30T10:03:54.018Z,48
2018-07-30T10:04:54.033Z,48
2018-07-30T10:05:54.044Z,48
2018-07-30T10:06:53.977Z,41
2018-07-30T10:07:54.035Z,41
2018-07-30T10:08:54.590Z,42
2018-07-30T10:09:53.979Z,42
2018-07-30T10:10:54.114Z,42
2018-07-30T10:11:54.201Z,43
2018-07-30T10:12:54.381Z,43
2018-07-30T10:17:06.708Z,43
2018-07-30T10:18:06.946Z,43
2018-07-30T10:20:06.691Z,39
2018-07-30T10:24:06.822Z,38
2018-07-30T10:28:06.872Z,37
2018-07-30T10:31:06.779Z,37
2018-07-30T10:36:06.769Z,37
2018-07-30T10:37:06.844Z,37
2018-07-30T10:38:06.873Z,37
2018-07-30T10:41:06.817Z,37
2018-07-30T10:42:06.782Z,34
2018-07-30T10:43:06.804Z,34
2018-07-30T10:44:06.773Z,33
2018-07-30T10:56:07.441Z,34
2018-07-30T10:59:07.483Z,33
2018-07-30T11:00:07.342Z,35
2018-07-30T11:03:07.401Z,35
2018-07-30T11:05:07.279Z,35
2018-07-30T11:14:17.164Z,35
2018-07-30T11:14:27.283Z,35
2018-07-30T11:15:27.119Z,36
2018-07-30T11:16:27.136Z,36
2018-07-30T11:17:27.243Z,36
2018-07-30T11:18:27.183Z,36
2018-07-30T11:20:27.163Z,36
2018-07-30T11:21:27.136Z,36
2018-07-30T11:22:27.141Z,36
2018-07-30T11:24:40.536Z,36
2018-07-30T11:25:40.521Z,35
2018-07-30T11:26:40.560Z,35
2018-07-30T11:27:44.396Z,34
2018-07-30T11:28:40.666Z,34
2018-07-30T11:29:40.545Z,34
2018-07-30T11:31:40.607Z,35
2018-07-30T11:32:40.598Z,33
2018-07-30T11:33:41.229Z,33
2018-07-30T11:44:28.663Z,33
2018-07-30T11:45:27.297Z,36
2018-07-30T11:47:27.305Z,36
2018-07-30T11:48:28.454Z,34
2018-07-30T11:49:27.906Z,34
2018-07-30T11:50:27.323Z,33
2018-07-30T11:51:27.311Z,33
2018-07-30T11:52:27.360Z,33
2018-07-30T11:53:27.376Z,32
2018-07-30T12:05:27.811Z,29
2018-07-30T12:06:27.758Z,29
2018-07-30T12:07:27.759Z,29
2018-07-30T12:08:27.868Z,30
2018-07-30T12:09:27.778Z,30
2018-07-30T12:10:27.766Z,30
2018-07-30T12:11:27.804Z,31
2018-07-30T12:12:27.765Z,31
2018-07-30T12:13:27.808Z,31
2018-07-30T12:14:27.876Z,31
2018-07-30T12:15:30.585Z,31
2018-07-30T12:16:27.858Z,31
2018-07-30T12:17:27.823Z,31
2018-07-30T12:18:27.792Z,33
2018-07-30T12:19:27.841Z,33
2018-07-30T12:20:27.851Z,33
2018-07-30T12:22:44.315Z,30
2018-07-30T12:23:44.350Z,32
2018-07-30T12:25:45.018Z,30
2018-07-30T12:26:44.300Z,30
2018-07-30T12:27:44.280Z,30
2018-07-30T12:28:44.343Z,32
2018-07-30T12:29:44.362Z,32
2018-07-30T12:30:44.443Z,32
2018-07-30T12:31:44.306Z,33
2018-07-30T12:32:44.371Z,33
2018-07-30T12:33:44.234Z,33
2018-07-30T12:34:44.285Z,33
2018-07-30T12:35:45.332Z,33
2018-07-30T12:36:44.293Z,33
2018-07-30T12:37:44.265Z,33
2018-07-30T12:38:44.328Z,33
2018-07-30T12:39:44.320Z,33
2018-07-30T12:40:44.310Z,33
2018-07-30T12:41:44.372Z,33
2018-07-30T12:42:44.352Z,33
2018-07-30T12:43:44.351Z,32
2018-07-30T12:44:44.288Z,32
2018-07-30T12:45:44.355Z,32
2018-07-30T12:46:44.408Z,33
2018-07-30T12:47:44.607Z,33
2018-07-30T12:48:44.352Z,33
2018-07-30T12:49:44.390Z,33
2018-07-30T12:52:44.505Z,30
2018-07-30T12:53:44.332Z,29
2018-07-30T12:54:44.323Z,29
2018-07-30T12:55:44.421Z,29
2018-07-30T12:56:45.247Z,29
2018-07-30T12:57:44.547Z,29
2018-07-30T12:58:44.611Z,29
2018-07-30T12:59:45.025Z,32
2018-07-30T13:00:44.371Z,32
2018-07-30T13:01:44.491Z,31
2018-07-30T13:02:44.456Z,31
2018-07-30T13:03:44.482Z,31
2018-07-30T13:04:44.452Z,32
2018-07-30T13:05:44.344Z,32
2018-07-30T13:06:44.366Z,30
2018-07-30T13:09:44.454Z,32
2018-07-30T13:10:45.164Z,32
2018-07-30T13:11:44.525Z,30
2018-07-30T13:12:44.587Z,30
2018-07-30T13:13:44.661Z,30
2018-07-30T13:14:44.577Z,32
2018-07-30T13:15:45.288Z,32
2018-07-30T13:16:45.092Z,32
2018-07-30T13:18:47.221Z,32
2018-07-30T13:19:45.070Z,31
2018-07-30T13:21:15.828Z,31
2018-07-30T13:21:53.097Z,31
2018-07-30T13:22:56.531Z,31
2018-07-30T13:23:59.781Z,31
2018-07-30T13:24:44.734Z,31
2018-07-30T13:26:44.616Z,29
2018-07-30T13:27:44.439Z,29
2018-07-30T13:28:44.398Z,29
2018-07-30T13:29:44.765Z,29
2018-07-30T13:31:44.415Z,29
2018-07-30T13:32:44.427Z,29
2018-07-30T13:33:44.415Z,29
2018-07-30T13:34:44.613Z,29
2018-07-30T13:35:44.782Z,29
2018-07-30T13:36:44.808Z,29
2018-07-30T13:37:44.953Z,31
2018-07-30T13:38:44.893Z,31
2018-07-30T13:39:44.797Z,31
2018-07-30T13:40:44.881Z,31
2018-07-30T13:41:45.540Z,31
2018-07-30T13:42:44.504Z,31
2018-07-30T13:43:44.544Z,31
2018-07-30T13:44:45.175Z,31
2018-07-30T13:45:44.667Z,31
2018-07-30T13:46:44.535Z,31
2018-07-30T13:47:44.555Z,32
2018-07-30T13:48:44.456Z,32
2018-07-30T13:49:44.416Z,32
2018-07-30T13:50:44.621Z,32
2018-07-30T13:51:44.580Z,32
2018-07-30T13:52:44.645Z,32
2018-07-30T13:53:44.587Z,32
2018-07-30T13:54:45.125Z,32
2018-07-30T13:55:45.149Z,32
2018-07-30T14:04:53.860Z,32
2018-07-30T14:07:09.138Z,31
2018-07-30T14:08:09.513Z,28
2018-07-30T14:09:09.354Z,28
2018-07-30T14:11:09.384Z,31
2018-07-30T14:12:09.263Z,31
2018-07-30T14:13:09.490Z,29
2018-07-30T14:14:09.421Z,29
2018-07-30T14:15:10.145Z,28
2018-07-30T14:17:09.748Z,28
2018-07-30T14:18:10.005Z,29
2018-07-30T14:19:09.421Z,29
2018-07-30T14:20:09.472Z,31
2018-07-30T14:22:15.545Z,31
2018-07-30T14:23:11.712Z,29
2018-07-30T14:24:11.722Z,29
2018-07-30T14:26:11.226Z,28
2018-07-30T14:27:09.232Z,28
2018-07-30T14:28:09.473Z,31
2018-07-30T14:29:10.152Z,31
2018-07-30T14:31:09.391Z,31
2018-07-30T14:33:09.292Z,32
2018-07-30T14:34:10.089Z,32
2018-07-30T14:35:09.964Z,32
2018-07-30T14:36:09.339Z,31
2018-07-30T14:37:10.188Z,31
2018-07-30T14:38:09.245Z,31
2018-07-30T14:39:09.912Z,31
2018-07-30T14:40:09.245Z,31
2018-07-30T14:41:10.278Z,30
2018-07-30T14:42:09.496Z,30
2018-07-30T14:43:09.553Z,30
2018-07-30T14:44:09.371Z,30
2018-07-30T14:45:09.351Z,30
2018-07-30T14:46:09.322Z,30
2018-07-30T14:47:09.341Z,30
2018-07-30T14:49:02.127Z,32
2018-07-30T14:49:11.473Z,32
2018-07-30T14:50:11.307Z,32
2018-07-30T14:51:11.230Z,31
2018-07-30T14:52:11.127Z,31
2018-07-30T14:53:12.122Z,32
2018-07-30T14:54:11.272Z,32
2018-07-30T14:55:11.166Z,32
2018-07-30T14:57:11.106Z,30
2018-07-30T14:58:11.737Z,30
2018-07-30T15:01:25.456Z,33
2018-07-30T15:02:26.365Z,33
2018-07-30T15:03:28.851Z,32
2018-07-30T15:04:30.197Z,32
2018-07-30T15:05:29.273Z,32
2018-07-30T15:06:28.144Z,33
2018-07-30T15:07:33.364Z,33
2018-07-30T15:08:30.329Z,32
2018-07-30T15:09:28.371Z,32
2018-07-30T15:10:33.892Z,32
2018-07-30T15:11:34.811Z,34
2018-07-30T15:12:27.327Z,34
2018-07-30T15:14:25.749Z,30
2018-07-30T15:15:37.821Z,30
2018-07-30T15:17:24.631Z,33
2018-07-30T15:18:28.453Z,33
2018-07-30T15:19:27.094Z,32
2018-07-30T15:20:24.367Z,32
2018-07-30T15:21:24.354Z,33
2018-07-30T15:22:24.518Z,33
2018-07-30T15:23:24.440Z,33
2018-07-30T15:25:24.469Z,33
2018-07-30T15:26:24.505Z,32
2018-07-30T15:27:24.570Z,32
2018-07-30T15:31:39.190Z,32
2018-07-30T15:31:50.762Z,32
2018-07-30T15:32:50.121Z,33
2018-07-30T15:33:50.289Z,34
2018-07-30T15:34:50.138Z,34
2018-07-30T15:35:50.190Z,34
2018-07-30T15:36:50.559Z,32
2018-07-30T15:37:50.225Z,32
2018-07-30T15:38:50.149Z,32
2018-07-30T15:39:50.203Z,32
2018-07-30T15:43:03.443Z,33
2018-07-30T15:44:03.169Z,33
2018-07-30T15:46:03.193Z,33
2018-07-30T15:47:03.178Z,32
2018-07-30T15:48:03.164Z,32
2018-07-30T15:49:03.158Z,32
2018-07-30T15:50:03.377Z,33
2018-07-30T15:51:03.155Z,33
2018-07-30T16:07:06.697Z,31
2018-07-30T16:08:06.591Z,31
2018-07-30T16:11:06.680Z,34
2018-07-30T16:12:06.866Z,33
2018-07-30T16:13:06.683Z,33
2018-07-30T16:14:06.750Z,33
2018-07-30T16:18:19.029Z,32
2018-07-30T16:19:19.518Z,32
2018-07-30T16:20:19.048Z,33
2018-07-30T16:21:19.305Z,33
2018-07-30T16:22:19.187Z,33
2018-07-30T16:23:19.114Z,33
2018-07-30T16:24:19.131Z,33
2018-07-30T16:25:18.980Z,32
2018-07-30T16:27:19.033Z,33
2018-07-30T16:29:19.144Z,33
2018-07-30T16:30:19.027Z,33
2018-07-30T16:31:18.909Z,33
2018-07-30T16:32:18.973Z,32
2018-07-30T16:33:19.079Z,32
2018-07-30T16:36:19.959Z,32
2018-07-30T16:37:19.163Z,32
2018-07-30T16:38:19.097Z,31
2018-07-30T16:39:19.085Z,31
2018-07-30T16:40:19.016Z,30
2018-07-30T16:41:19.141Z,30
2018-07-30T16:42:19.072Z,30
2018-07-30T16:43:19.178Z,31
2018-07-30T16:44:19.016Z,31
2018-07-30T16:47:19.037Z,31
2018-07-30T16:48:19.875Z,32
2018-07-30T16:49:19.036Z,32
2018-07-30T16:50:19.052Z,32
2018-07-30T16:51:20.883Z,32
2018-07-30T16:52:21.443Z,32
2018-07-30T16:53:19.848Z,32
2018-07-30T16:54:20.145Z,32
2018-07-30T16:55:22.578Z,33
2018-07-30T16:56:20.455Z,33
2018-07-30T16:59:23.294Z,33
2018-07-30T17:00:22.111Z,34
2018-07-30T17:01:19.806Z,34
2018-07-30T17:02:19.926Z,34
2018-07-30T17:03:21.671Z,33
2018-07-30T17:04:23.297Z,33
2018-07-30T17:05:19.217Z,33
2018-07-30T17:06:21.941Z,33
2018-07-30T17:07:22.108Z,33
2018-07-30T17:08:19.812Z,33
2018-07-30T17:09:21.038Z,33
2018-07-30T17:10:20.424Z,33
2018-07-30T17:13:20.906Z,33
2018-07-30T17:14:19.267Z,33
2018-07-30T17:15:22.394Z,33
2018-07-30T17:17:21.325Z,33
2018-07-30T17:18:20.823Z,33
2018-07-30T17:19:19.288Z,33
2018-07-30T17:20:22.172Z,33
2018-07-30T17:21:21.178Z,33
2018-07-30T17:22:20.544Z,33
2018-07-30T17:23:26.812Z,32
2018-07-30T17:24:19.346Z,32
2018-07-30T17:25:22.369Z,32
2018-07-30T17:26:19.920Z,32
2018-07-30T17:27:22.444Z,32
2018-07-30T17:28:22.276Z,32
2018-07-30T17:29:23.669Z,32
2018-07-30T17:30:20.411Z,32
2018-07-30T17:31:20.991Z,34
2018-07-30T17:32:24.444Z,34
2018-07-30T17:33:27.471Z,34
2018-07-30T17:34:19.118Z,34
2018-07-30T17:35:20.546Z,34
2018-07-30T17:37:23.353Z,34
2018-07-30T17:38:26.785Z,34
2018-07-30T17:39:19.661Z,33
2018-07-30T17:41:20.842Z,34
2018-07-30T17:42:22.341Z,34
2018-07-30T17:45:19.893Z,35
2018-07-30T17:46:22.508Z,35
2018-07-30T17:47:19.287Z,35
2018-07-30T17:48:19.229Z,35
2018-07-30T17:49:19.426Z,35
2018-07-30T17:50:19.315Z,35
2018-07-30T17:51:19.490Z,35
2018-07-30T17:52:19.326Z,35
2018-07-30T17:53:19.347Z,35
2018-07-30T17:54:19.401Z,35
2018-07-30T17:55:19.480Z,35
2018-07-30T17:56:19.957Z,35
2018-07-30T17:57:22.915Z,35
2018-07-30T17:58:19.793Z,35
2018-07-30T17:59:21.203Z,37
2018-07-30T18:00:20.953Z,37
2018-07-30T18:01:19.863Z,35
2018-07-30T18:03:20.013Z,35
2018-07-30T18:04:19.956Z,37
2018-07-30T18:06:19.858Z,37
2018-07-30T18:07:21.506Z,37
2018-07-30T18:08:19.888Z,37
2018-07-30T18:09:19.998Z,39
2018-07-30T18:10:20.923Z,39
2018-07-30T18:11:19.628Z,39
2018-07-30T18:12:20.060Z,39
2018-07-30T18:13:21.279Z,39